KHRL/HRL METAR and TAF weather

Enter ICAO airport designator
Station Type Date Time Source
KHRL METAR 2019/02/21 10:52 UTC NOAA

KHRL 211052Z AUTO 04004KT 10SM OVC020 14/12 A2984 RMK AO2 SLP104 T01440117


Station Type Date Time Source
KHRL Decoded METAR 2019/02/21 10:52 UTC NOAA

RIO GRANDE VALLEY, TX, United States (KHRL) 26-13N 97-39W 10M
Feb 21, 2019 - 05:52 AM EST / 2019.02.21 1052 UTC
Wind: from the NE (040 degrees) at 5 MPH (4 KT):0
Visibility: 10 mile(s):0
Sky conditions: overcast
Temperature: 57.9 F (14.4 C)
Dew Point: 53.1 F (11.7 C)
Relative Humidity: 83%
Pressure (altimeter): 29.84 in. Hg (1010 hPa)
ob: KHRL 211052Z AUTO 04004KT 10SM OVC020 14/12 A2984 RMK AO2 SLP104 T01440117
cycle: 11

Station Type Date Time Source
KHRL TAF 2019/02/21 12:33 UTC NOAA

TAF KHRL 211129Z 2112/2212 36005KT P6SM OVC015
FM211800 01008KT P6SM OVC030
FM212100 11008KT P6SM OVC050
FM220300 07005KT P6SM OVC025
FM220600 10004KT 4SM BR OVC004


Example: see airport list